Time;durP1;ratioP1;P1;durP2;ratioP2;P2;SDS_P1;SDS_P2;PMS_P1;PMS_P2;Temp;Humidity;BMP_temperature;BMP_pressure;BME280_temperature;BME280_humidity;BME280_pressure;Samples;Min_cycle;Max_cycle;Signal;HPM_P1;HPM_P2
2022/10/23 00:00:38;;;;;;;9.07;6.10;;;14.20;86.40;;;;;;5077525;28;20414;-14
2022/10/23 00:03:05;;;;;;;12.52;7.97;;;14.20;86.40;;;;;;5076753;28;20024;-15
2022/10/23 00:05:31;;;;;;;13.10;7.75;;;14.20;86.40;;;;;;5077452;28;20025;-14
2022/10/23 00:07:59;;;;;;;12.18;7.45;;;14.20;86.30;;;;;;5077308;28;20028;-14
2022/10/23 00:10:27;;;;;;;15.68;7.85;;;14.10;86.30;;;;;;5076687;28;20107;-14
2022/10/23 00:12:53;;;;;;;9.75;6.22;;;14.10;86.30;;;;;;5076796;28;20055;-16
2022/10/23 00:15:21;;;;;;;12.70;7.72;;;14.10;86.40;;;;;;5075403;28;20028;-14
2022/10/23 00:17:47;;;;;;;10.35;7.15;;;14.10;86.50;;;;;;5076845;28;20032;-15
2022/10/23 00:20:15;;;;;;;9.93;6.25;;;14.10;86.40;;;;;;5076550;28;20024;-15
2022/10/23 00:22:41;;;;;;;8.75;6.25;;;14.10;86.40;;;;;;5076598;28;20035;-15
2022/10/23 00:25:09;;;;;;;13.73;7.82;;;14.10;86.40;;;;;;5076220;28;20028;-16
2022/10/23 00:27:36;;;;;;;11.52;6.95;;;14.10;86.40;;;;;;5076666;28;20455;-15
2022/10/23 00:30:04;;;;;;;10.35;6.50;;;14.10;86.40;;;;;;5076400;28;20023;-16
2022/10/23 00:32:30;;;;;;;9.15;5.78;;;14.10;86.30;;;;;;5076168;28;20074;-16
2022/10/23 00:34:55;;;;;;;7.82;5.55;;;14.20;86.50;;;;;;5076096;28;20020;-15
2022/10/23 00:37:21;;;;;;;9.40;6.18;;;14.20;86.50;;;;;;5076412;28;20111;-15
2022/10/23 00:39:47;;;;;;;9.07;6.00;;;14.20;86.40;;;;;;5076039;28;20562;-15
2022/10/23 00:42:17;;;;;;;8.18;5.63;;;14.20;86.40;;;;;;5076135;28;20068;-15
2022/10/23 00:44:43;;;;;;;8.57;5.65;;;14.20;86.30;;;;;;5076118;28;20021;-16
2022/10/23 00:47:09;;;;;;;10.60;5.22;;;14.20;86.40;;;;;;5076134;28;20107;-16
2022/10/23 00:49:35;;;;;;;7.53;4.80;;;14.20;86.30;;;;;;5076303;28;20078;-14
2022/10/23 00:52:06;;;;;;;8.63;5.10;;;14.20;86.30;;;;;;5076172;28;20087;-15
2022/10/23 00:54:36;;;;;;;7.32;5.00;;;14.20;86.30;;;;;;5075733;28;20123;-15
2022/10/23 00:57:05;;;;;;;7.80;5.30;;;14.30;86.30;;;;;;5075718;28;20506;-14
2022/10/23 00:59:32;;;;;;;7.45;5.55;;;14.40;86.30;;;;;;5075042;28;20111;-13
2022/10/23 01:01:58;;;;;;;9.27;6.00;;;14.30;86.30;;;;;;5075303;28;20093;-15
2022/10/23 01:04:26;;;;;;;11.07;5.47;;;14.30;86.20;;;;;;5075724;28;20056;-15
2022/10/23 01:06:52;;;;;;;8.30;5.75;;;14.30;86.20;;;;;;5075758;28;20031;-16
2022/10/23 01:09:35;;;;;;;7.53;5.30;;;14.30;86.20;;;;;;5075780;28;20032;-15
2022/10/23 01:12:25;;;;;;;10.02;5.10;;;14.30;86.20;;;;;;5075635;28;20071;-15
2022/10/23 01:15:09;;;;;;;7.70;4.95;;;14.20;86.20;;;;;;5075474;28;20070;-15
2022/10/23 01:17:47;;;;;;;;;;;14.20;86.20;;;;;;5076309;28;20025;-16
2022/10/23 01:20:44;;;;;;;8.90;5.43;;;14.20;86.20;;;;;;5075711;28;19912;-14
2022/10/23 01:23:39;;;;;;;8.50;5.50;;;14.10;86.20;;;;;;5075260;28;20523;-16
2022/10/23 01:26:17;;;;;;;9.73;5.55;;;14.10;86.10;;;;;;5075609;28;20025;-15
2022/10/23 01:28:56;;;;;;;8.57;5.13;;;14.00;86.20;;;;;;5075356;28;20029;-17
2022/10/23 01:31:41;;;;;;;5.90;4.15;;;14.00;86.20;;;;;;5075531;28;20081;-17
2022/10/23 01:34:17;;;;;;;6.78;4.93;;;14.00;86.20;;;;;;5075672;28;20434;-16
2022/10/23 01:36:47;;;;;;;7.57;4.95;;;13.90;86.20;;;;;;5075126;28;20054;-15
2022/10/23 01:39:44;;;;;;;8.55;4.78;;;13.90;86.20;;;;;;5074850;28;20025;-15
2022/10/23 01:42:14;;;;;;;7.30;4.40;;;13.90;86.30;;;;;;5053103;28;20047;-16
2022/10/23 01:44:51;;;;;;;6.00;4.38;;;13.90;86.30;;;;;;5052932;28;20036;-16
2022/10/23 01:47:22;;;;;;;4.90;3.67;;;13.90;86.30;;;;;;5053371;28;20110;-15
2022/10/23 01:49:50;;;;;;;7.80;4.30;;;13.90;86.20;;;;;;5052883;28;20033;-15
2022/10/23 01:52:18;;;;;;;7.35;3.75;;;13.90;86.20;;;;;;5052724;28;20033;-17
2022/10/23 01:54:47;;;;;;;7.82;4.55;;;13.90;86.10;;;;;;5053080;28;20090;-14
2022/10/23 01:57:16;;;;;;;8.40;4.85;;;13.90;86.10;;;;;;5052648;28;20048;-15
2022/10/23 01:59:48;;;;;;;6.82;4.97;;;13.90;86.10;;;;;;5052615;28;20040;-15
2022/10/23 02:02:17;;;;;;;7.78;5.30;;;13.80;86.20;;;;;;5052562;28;20078;-15
2022/10/23 02:05:05;;;;;;;8.25;5.13;;;13.90;86.20;;;;;;5052841;28;20090;-16
2022/10/23 02:07:31;;;;;;;9.52;4.80;;;13.90;86.30;;;;;;5053103;28;20029;-15
2022/10/23 02:09:58;;;;;;;6.82;4.20;;;13.90;86.30;;;;;;5052223;28;20032;-15
2022/10/23 02:12:36;;;;;;;5.63;4.03;;;13.90;86.20;;;;;;5052277;28;20041;-15
2022/10/23 02:15:13;;;;;;;8.10;4.30;;;13.90;86.20;;;;;;5052203;28;20393;-16
2022/10/23 02:18:01;;;;;;;6.78;4.03;;;13.80;86.20;;;;;;5052243;28;20500;-14
2022/10/23 02:20:44;;;;;;;10.77;5.30;;;13.80;86.10;;;;;;5074317;28;20032;-17
2022/10/23 02:23:18;;;;;;;7.95;4.72;;;13.80;86.10;;;;;;5074265;28;20032;-17
2022/10/23 02:25:58;;;;;;;7.72;4.45;;;13.80;86.10;;;;;;5074049;28;20081;-15
2022/10/23 02:28:30;;;;;;;9.27;5.20;;;13.70;86.10;;;;;;5074383;28;20029;-14
2022/10/23 02:30:59;;;;;;;13.10;5.93;;;13.70;86.10;;;;;;5073899;28;20021;-17
2022/10/23 02:33:27;;;;;;;7.32;4.80;;;13.60;86.10;;;;;;5074592;28;20431;-15
2022/10/23 02:35:53;;;;;;;7.90;4.85;;;13.60;86.20;;;;;;5074180;28;20063;-16
2022/10/23 02:38:30;;;;;;;5.18;3.80;;;13.60;86.30;;;;;;5072587;28;20031;-15
2022/10/23 02:41:23;;;;;;;8.57;4.35;;;13.60;86.40;;;;;;5072447;28;20506;-15
2022/10/23 02:44:14;;;;;;;10.20;5.60;;;13.60;86.40;;;;;;5074211;28;20032;-15
2022/10/23 02:46:46;;;;;;;8.30;5.25;;;13.50;86.30;;;;;;5074074;28;20081;-15
2022/10/23 02:49:34;;;;;;;9.75;5.55;;;13.60;86.50;;;;;;5073649;28;20032;-17
2022/10/23 02:52:37;;;;;;;7.75;4.55;;;13.50;86.50;;;;;;5073681;28;20025;-14
2022/10/23 02:55:27;;;;;;;6.40;4.72;;;13.50;86.50;;;;;;5073355;28;20089;-15
2022/10/23 02:58:07;;;;;;;8.00;5.18;;;13.50;86.60;;;;;;5073800;28;20031;-14
2022/10/23 03:00:37;;;;;;;6.50;4.53;;;13.60;86.60;;;;;;5073544;28;20029;-15
2022/10/23 03:03:12;;;;;;;8.02;5.00;;;13.60;86.60;;;;;;5073567;28;20020;-16
2022/10/23 03:05:40;;;;;;;7.47;4.32;;;13.60;86.60;;;;;;5074099;28;20048;-16
2022/10/23 03:08:11;;;;;;;7.75;4.95;;;13.70;86.60;;;;;;5073409;28;20028;-16
2022/10/23 03:10:37;;;;;;;7.57;5.18;;;13.70;86.60;;;;;;5073620;28;20101;-16
2022/10/23 03:13:03;;;;;;;7.78;4.07;;;13.70;86.50;;;;;;5073427;28;20104;-15
2022/10/23 03:15:29;;;;;;;8.05;4.68;;;13.70;86.50;;;;;;5073250;28;20495;-15
2022/10/23 03:17:55;;;;;;;8.93;5.60;;;13.70;86.40;;;;;;5073555;28;20380;-15
2022/10/23 03:20:21;;;;;;;10.65;6.28;;;13.70;86.30;;;;;;5073208;28;20028;-17
2022/10/23 03:22:47;;;;;;;9.18;5.30;;;13.70;86.30;;;;;;5072824;28;20024;-16
2022/10/23 03:25:13;;;;;;;8.02;5.00;;;13.70;86.30;;;;;;5073626;28;20037;-15
2022/10/23 03:27:39;;;;;;;9.02;5.18;;;13.80;86.20;;;;;;5073230;28;20043;-16
2022/10/23 03:30:06;;;;;;;8.18;5.18;;;13.80;86.20;;;;;;5073487;28;20028;-14
2022/10/23 03:32:32;;;;;;;8.52;4.80;;;13.70;86.30;;;;;;5073009;28;20024;-16
2022/10/23 03:34:58;;;;;;;6.63;4.40;;;13.80;86.30;;;;;;5072847;28;20035;-14
2022/10/23 03:37:24;;;;;;;7.13;4.47;;;13.80;86.20;;;;;;5073668;28;20028;-17
2022/10/23 03:39:50;;;;;;;14.57;7.60;;;13.80;86.20;;;;;;5073105;28;20043;-16
2022/10/23 03:42:16;;;;;;;8.73;5.80;;;13.80;86.20;;;;;;5072178;28;20025;-15
2022/10/23 03:44:42;;;;;;;9.20;5.35;;;13.80;86.20;;;;;;5073320;28;20108;-16
2022/10/23 03:47:10;;;;;;;7.22;4.95;;;13.70;86.20;;;;;;5073399;28;20024;-15
2022/10/23 03:49:38;;;;;;;6.72;4.68;;;13.70;86.20;;;;;;5072967;28;20021;-16
2022/10/23 03:52:05;;;;;;;9.73;5.35;;;13.70;86.20;;;;;;5073249;28;20024;-15
2022/10/23 03:54:32;;;;;;;8.25;5.18;;;13.60;86.20;;;;;;5072690;28;20068;-16
2022/10/23 03:56:59;;;;;;;8.38;5.38;;;13.60;86.30;;;;;;5071419;28;20377;-15
2022/10/23 03:59:26;;;;;;;8.07;5.25;;;13.60;86.30;;;;;;5073104;28;20025;-15
2022/10/23 04:01:52;;;;;;;7.93;5.25;;;13.60;86.20;;;;;;5073155;28;20037;-15
2022/10/23 04:04:19;;;;;;;6.35;4.80;;;13.50;86.20;;;;;;5073624;28;20023;-17
2022/10/23 04:06:45;;;;;;;5.88;4.43;;;13.50;86.20;;;;;;5073340;28;20112;-15
2022/10/23 04:09:11;;;;;;;7.90;4.47;;;13.50;86.30;;;;;;5072781;28;20021;-15
2022/10/23 04:11:37;;;;;;;8.05;5.13;;;13.50;86.40;;;;;;5073070;28;20035;-16
2022/10/23 04:14:03;;;;;;;8.32;5.15;;;13.40;86.40;;;;;;5072732;28;20099;-15
2022/10/23 04:16:29;;;;;;;7.60;4.65;;;13.40;86.40;;;;;;5072971;28;20075;-16
2022/10/23 04:18:55;;;;;;;8.25;4.40;;;13.40;86.40;;;;;;5072335;28;20025;-16
2022/10/23 04:21:20;;;;;;;7.78;4.50;;;13.40;86.40;;;;;;5072952;28;20025;-15
2022/10/23 04:23:46;;;;;;;7.50;4.90;;;13.40;86.50;;;;;;5072496;28;20384;-16
2022/10/23 04:26:12;;;;;;;6.13;4.53;;;13.40;86.50;;;;;;5072915;28;20098;-15
2022/10/23 04:28:38;;;;;;;7.15;4.88;;;13.40;86.50;;;;;;5072585;28;20100;-17
2022/10/23 04:31:04;;;;;;;6.60;4.32;;;13.40;86.50;;;;;;5072338;28;20483;-15
2022/10/23 04:33:30;;;;;;;7.93;4.57;;;13.40;86.40;;;;;;5072855;28;20029;-16
2022/10/23 04:35:56;;;;;;;7.82;4.65;;;13.40;86.50;;;;;;5075744;28;20023;-16
2022/10/23 04:38:23;;;;;;;5.93;4.45;;;13.50;86.30;;;;;;5076409;28;20028;-16
2022/10/23 04:40:49;;;;;;;6.72;4.60;;;13.40;86.20;;;;;;5076018;28;20024;-15
2022/10/23 04:43:14;;;;;;;6.85;4.32;;;13.50;86.20;;;;;;5076120;28;20031;-14
2022/10/23 04:45:40;;;;;;;5.38;3.92;;;13.50;86.20;;;;;;5074851;28;20032;-15
2022/10/23 04:48:06;;;;;;;6.53;4.40;;;13.50;86.20;;;;;;5076064;28;20060;-16
2022/10/23 04:50:32;;;;;;;8.30;4.80;;;13.50;86.20;;;;;;5076175;28;20031;-15
2022/10/23 04:52:58;;;;;;;5.28;3.60;;;13.50;86.20;;;;;;5075649;28;20095;-15
2022/10/23 04:55:24;;;;;;;5.93;3.92;;;13.50;86.10;;;;;;5075905;28;20510;-15
2022/10/23 04:57:51;;;;;;;6.68;4.07;;;13.50;86.10;;;;;;5076324;28;20032;-15
2022/10/23 05:00:18;;;;;;;7.43;4.57;;;13.50;86.10;;;;;;5076068;28;20101;-16
2022/10/23 05:02:44;;;;;;;7.40;5.18;;;13.40;86.10;;;;;;5076070;28;20034;-16
2022/10/23 05:05:11;;;;;;;6.43;4.15;;;13.40;86.00;;;;;;5074583;28;20043;-15
2022/10/23 05:07:37;;;;;;;7.95;4.53;;;13.40;86.00;;;;;;5076024;28;20104;-15
2022/10/23 05:10:04;;;;;;;5.57;4.10;;;13.30;86.10;;;;;;5076078;28;20024;-16
2022/10/23 05:12:30;;;;;;;7.28;4.38;;;13.30;86.20;;;;;;5075519;28;20060;-17
2022/10/23 05:14:56;;;;;;;6.50;4.43;;;13.30;86.20;;;;;;5075385;28;20113;-17
2022/10/23 05:17:44;;;;;;;7.57;4.38;;;13.30;86.20;;;;;;5075509;28;20027;-15
2022/10/23 05:20:15;;;;;;;6.30;4.15;;;13.20;86.30;;;;;;5075334;28;20445;-16
2022/10/23 05:22:43;;;;;;;6.38;4.10;;;13.20;86.30;;;;;;5074224;28;20036;-15
2022/10/23 05:25:10;;;;;;;8.70;4.80;;;13.20;86.30;;;;;;5075003;28;20032;-15
2022/10/23 05:27:36;;;;;;;8.65;4.45;;;13.20;86.30;;;;;;5076079;28;20044;-16
2022/10/23 05:30:03;;;;;;;7.05;4.30;;;13.20;86.30;;;;;;5075286;28;20472;-14
2022/10/23 05:32:31;;;;;;;7.70;5.30;;;13.10;86.30;;;;;;5075228;28;20108;-16
2022/10/23 05:34:57;;;;;;;6.07;4.25;;;13.10;86.30;;;;;;5075069;28;20032;-16
2022/10/23 05:37:24;;;;;;;8.18;5.70;;;13.10;86.40;;;;;;5075087;28;20103;-17
2022/10/23 05:39:50;;;;;;;8.85;5.68;;;13.10;86.40;;;;;;5073722;28;20033;-15
2022/10/23 05:42:16;;;;;;;8.07;4.97;;;13.10;86.50;;;;;;5075381;28;20100;-17
2022/10/23 05:44:42;;;;;;;8.32;5.30;;;13.10;86.60;;;;;;5074994;28;20447;-16
2022/10/23 05:47:08;;;;;;;8.90;4.80;;;13.10;86.60;;;;;;5074543;28;20033;-16
2022/10/23 05:49:33;;;;;;;7.90;4.53;;;13.10;86.60;;;;;;5074855;28;20051;-15
2022/10/23 05:51:59;;;;;;;6.90;4.45;;;13.00;86.50;;;;;;5074851;28;20024;-15
2022/10/23 05:54:25;;;;;;;5.97;4.38;;;13.10;86.60;;;;;;5074582;28;20047;-15
2022/10/23 05:56:51;;;;;;;7.13;4.35;;;13.10;86.50;;;;;;5074845;28;20472;-16
2022/10/23 05:59:18;;;;;;;7.15;4.25;;;13.10;86.50;;;;;;5073438;28;20028;-15
2022/10/23 06:01:43;;;;;;;6.57;4.47;;;13.10;86.50;;;;;;5075274;28;20388;-15
2022/10/23 06:04:09;;;;;;;12.32;6.05;;;13.10;86.40;;;;;;5074896;28;20039;-14
2022/10/23 06:06:35;;;;;;;7.22;4.78;;;13.00;86.40;;;;;;5074604;28;20024;-16
2022/10/23 06:09:02;;;;;;;10.50;5.80;;;13.00;86.40;;;;;;5074161;28;20502;-15
2022/10/23 06:11:29;;;;;;;12.13;8.23;;;13.00;86.50;;;;;;5074680;28;20101;-16
2022/10/23 06:13:54;;;;;;;44.22;30.65;;;13.00;86.50;;;;;;5073173;28;20066;-16
2022/10/23 06:16:26;;;;;;;11.82;7.53;;;13.10;86.50;;;;;;5074673;28;20025;-15
2022/10/23 06:18:52;;;;;;;10.52;6.88;;;13.10;86.60;;;;;;5074123;28;20365;-15
2022/10/23 06:21:18;;;;;;;10.30;6.47;;;13.10;86.70;;;;;;5074204;28;20059;-15
2022/10/23 06:23:46;;;;;;;10.02;5.82;;;13.20;86.70;;;;;;5074447;28;20095;-15
2022/10/23 06:26:15;;;;;;;12.40;7.10;;;13.20;86.70;;;;;;5074075;28;20067;-16
2022/10/23 06:28:41;;;;;;;9.88;7.13;;;13.30;86.70;;;;;;5074279;28;20430;-16
2022/10/23 06:31:13;;;;;;;10.68;6.70;;;13.30;86.70;;;;;;5074193;28;20078;-15
2022/10/23 06:33:40;;;;;;;11.32;7.80;;;13.40;86.70;;;;;;5074603;28;20025;-16
2022/10/23 06:36:09;;;;;;;10.70;7.45;;;13.40;86.60;;;;;;5074244;28;20021;-16
2022/10/23 06:38:39;;;;;;;11.02;7.47;;;13.50;86.60;;;;;;5073848;28;20537;-15
2022/10/23 06:41:14;;;;;;;11.30;6.70;;;13.70;86.60;;;;;;5073604;28;20489;-15
2022/10/23 06:43:40;;;;;;;9.00;6.18;;;13.80;86.80;;;;;;5074211;28;20020;-16
2022/10/23 06:46:06;;;;;;;11.85;6.88;;;13.90;86.80;;;;;;5074096;28;20047;-17
2022/10/23 06:48:32;;;;;;;10.70;6.47;;;14.00;86.70;;;;;;5074015;28;20021;-15
2022/10/23 06:51:02;;;;;;;10.20;6.80;;;14.10;86.60;;;;;;5073709;28;20021;-16
2022/10/23 06:53:28;;;;;;;10.27;7.32;;;14.20;86.40;;;;;;5073353;28;20052;-16
2022/10/23 06:55:59;;;;;;;12.63;7.05;;;14.20;86.40;;;;;;5073995;28;20078;-16
2022/10/23 06:58:25;;;;;;;11.23;7.80;;;14.20;86.30;;;;;;5073737;28;20372;-17
2022/10/23 07:00:52;;;;;;;9.95;6.47;;;14.30;86.20;;;;;;5073599;28;20042;-15
2022/10/23 07:03:17;;;;;;;12.93;7.65;;;14.40;86.30;;;;;;5073796;28;20028;-15
2022/10/23 07:05:43;;;;;;;8.63;6.03;;;14.60;86.50;;;;;;5074026;28;20024;-17
2022/10/23 07:08:10;;;;;;;8.18;5.63;;;14.80;86.50;;;;;;5073734;28;20096;-15
2022/10/23 07:10:36;;;;;;;8.55;5.55;;;15.10;86.30;;;;;;5073632;28;20113;-15
2022/10/23 07:13:03;;;;;;;8.15;5.55;;;15.30;86.00;;;;;;5073237;28;20495;-16
2022/10/23 07:15:29;;;;;;;7.97;5.18;;;15.60;85.70;;;;;;5073963;28;20025;-15
2022/10/23 07:17:55;;;;;;;10.15;6.00;;;15.80;85.40;;;;;;5073287;28;20515;-15
2022/10/23 07:20:21;;;;;;;9.07;5.63;;;16.10;84.80;;;;;;5074096;28;20032;-17
2022/10/23 07:22:53;;;;;;;9.93;5.90;;;16.30;84.20;;;;;;5073451;28;20032;-16
2022/10/23 07:25:21;;;;;;;14.27;8.50;;;16.40;83.90;;;;;;5073473;28;20032;-15
2022/10/23 07:27:47;;;;;;;7.47;5.55;;;16.60;84.00;;;;;;5073436;28;20036;-15
2022/10/23 07:30:14;;;;;;;10.45;6.55;;;16.70;83.20;;;;;;5073093;28;20027;-15
2022/10/23 07:32:41;;;;;;;8.98;5.70;;;16.80;82.90;;;;;;5073120;28;20028;-16
2022/10/23 07:35:08;;;;;;;6.68;4.95;;;16.80;83.10;;;;;;5073243;28;20086;-16
2022/10/23 07:37:34;;;;;;;8.40;5.00;;;16.80;82.60;;;;;;5073599;28;20029;-15
2022/10/23 07:40:01;;;;;;;7.72;4.50;;;16.80;82.70;;;;;;5073219;28;20119;-15
2022/10/23 07:42:27;;;;;;;6.13;4.65;;;16.90;83.00;;;;;;5071792;28;20028;-16
2022/10/23 07:44:53;;;;;;;8.50;5.50;;;16.90;83.10;;;;;;5159879;22;20080;-17
2022/10/23 07:47:19;;;;;;;7.75;4.65;;;17.10;83.00;;;;;;5073016;28;20021;-17
2022/10/23 07:49:47;;;;;;;6.95;4.65;;;17.10;82.40;;;;;;5073293;28;20031;-16
2022/10/23 07:52:13;;;;;;;8.73;5.15;;;17.20;82.10;;;;;;5073228;28;20068;-16
2022/10/23 07:54:39;;;;;;;9.38;5.30;;;17.20;82.70;;;;;;5072973;28;20033;-15
2022/10/23 07:57:06;;;;;;;7.28;4.20;;;17.40;82.10;;;;;;5072774;28;20024;-16
2022/10/23 07:59:35;;;;;;;11.60;5.18;;;17.50;82.60;;;;;;5073040;28;20033;-16
2022/10/23 08:02:01;;;;;;;7.78;4.57;;;17.60;81.70;;;;;;5072813;28;20440;-15
2022/10/23 08:04:27;;;;;;;6.75;4.55;;;17.80;81.80;;;;;;5072843;28;20068;-16
2022/10/23 08:06:54;;;;;;;8.55;4.75;;;17.90;80.90;;;;;;5072937;28;20020;-15
2022/10/23 08:09:21;;;;;;;7.85;4.45;;;18.10;81.30;;;;;;5073625;28;20024;-16
2022/10/23 08:11:47;;;;;;;5.80;4.00;;;18.30;80.90;;;;;;5077003;28;20075;-16
2022/10/23 08:14:13;;;;;;;7.60;4.07;;;18.40;80.60;;;;;;5076606;28;20024;-15
2022/10/23 08:16:39;;;;;;;5.57;4.00;;;18.50;80.10;;;;;;5076883;28;20017;-16
2022/10/23 08:19:07;;;;;;;8.80;4.70;;;18.60;79.70;;;;;;5075105;28;20106;-15
2022/10/23 08:21:33;;;;;;;7.13;4.10;;;18.60;78.60;;;;;;5076554;28;20100;-15
2022/10/23 08:23:59;;;;;;;6.22;4.03;;;18.80;78.50;;;;;;5076819;28;20029;-16
2022/10/23 08:26:30;;;;;;;5.95;3.88;;;19.00;78.90;;;;;;5076455;28;20034;-15
2022/10/23 08:28:59;;;;;;;5.25;3.75;;;19.20;78.20;;;;;;5076471;28;20048;-15
2022/10/23 08:31:25;;;;;;;5.85;4.03;;;19.40;78.70;;;;;;5076369;28;20032;-16
2022/10/23 08:33:51;;;;;;;6.47;3.50;;;19.70;78.50;;;;;;5076370;28;20028;-15
2022/10/23 08:36:27;;;;;;;5.22;4.00;;;20.00;78.40;;;;;;5076567;28;20024;-15
2022/10/23 08:38:57;;;;;;;7.25;4.03;;;20.30;76.20;;;;;;5075936;28;20441;-16
2022/10/23 08:41:31;;;;;;;6.28;3.83;;;20.50;75.80;;;;;;5076530;28;20024;-16
2022/10/23 08:44:17;;;;;;;4.65;3.30;;;20.70;76.10;;;;;;5076137;28;20057;-16
2022/10/23 08:47:04;;;;;;;7.45;3.83;;;20.90;76.00;;;;;;5076448;28;20025;-15
2022/10/23 08:49:59;;;;;;;6.10;3.53;;;21.20;75.00;;;;;;5076087;28;20079;-16
2022/10/23 08:52:43;;;;;;;5.63;3.10;;;21.40;74.90;;;;;;5033816;28;20025;-15
2022/10/23 08:55:33;;;;;;;6.75;3.65;;;21.70;74.20;;;;;;5033894;28;20524;-15
2022/10/23 08:58:28;;;;;;;3.50;3.00;;;21.80;73.20;;;;;;5033951;28;20025;-16
2022/10/23 09:00:54;;;;;;;4.22;3.38;;;21.90;73.50;;;;;;5033804;28;20030;-16
2022/10/23 09:03:20;;;;;;;8.75;3.70;;;22.20;73.20;;;;;;5033867;28;20037;-16
2022/10/23 09:06:14;;;;;;;4.00;3.00;;;22.40;72.10;;;;;;5034310;28;20034;-16
2022/10/23 09:09:06;;;;;;;5.28;3.15;;;22.70;71.90;;;;;;5033771;28;20029;-16
2022/10/23 09:12:01;;;;;;;7.15;3.33;;;23.00;71.10;;;;;;5033716;28;20036;-16
2022/10/23 09:14:35;;;;;;;5.05;3.15;;;23.30;70.10;;;;;;5033607;28;20033;-16
2022/10/23 09:17:21;;;;;;;4.20;2.88;;;23.60;68.90;;;;;;5033269;28;20148;-15
2022/10/23 09:19:53;;;;;;;4.63;2.78;;;23.80;67.70;;;;;;5033442;28;20128;-16
2022/10/23 09:22:19;;;;;;;11.15;3.58;;;24.10;66.70;;;;;;5032429;28;20025;-15
2022/10/23 09:24:45;;;;;;;3.65;2.60;;;24.30;64.50;;;;;;5033536;28;20109;-16
2022/10/23 09:27:16;;;;;;;6.10;3.40;;;24.50;65.40;;;;;;5033142;28;20022;-16
2022/10/23 09:29:51;;;;;;;6.43;3.47;;;24.70;59.90;;;;;;5068442;28;20075;-16
2022/10/23 09:32:17;;;;;;;4.50;2.88;;;24.90;62.80;;;;;;5075558;28;20462;-15
2022/10/23 09:34:53;;;;;;;5.90;3.53;;;25.10;63.00;;;;;;5075203;28;20056;-15
2022/10/23 09:37:22;;;;;;;7.40;3.88;;;25.20;60.90;;;;;;5075704;28;20036;-15
2022/10/23 09:39:48;;;;;;;8.77;3.90;;;25.20;61.00;;;;;;5075391;28;20426;-15
2022/10/23 09:42:23;;;;;;;7.00;3.80;;;25.00;60.40;;;;;;5075428;28;20036;-16
2022/10/23 09:44:53;;;;;;;6.55;3.60;;;24.60;59.50;;;;;;5074495;28;20066;-15
2022/10/23 09:47:22;;;;;;;8.05;4.05;;;24.40;61.00;;;;;;5075005;28;20023;-15
2022/10/23 09:49:51;;;;;;;6.45;3.80;;;24.40;61.00;;;;;;5075299;28;20032;-14
2022/10/23 09:52:17;;;;;;;7.00;4.82;;;24.40;61.40;;;;;;5075204;28;20028;-14
2022/10/23 09:54:49;;;;;;;6.78;4.70;;;24.40;61.40;;;;;;5074803;28;20391;-14
2022/10/23 09:57:34;;;;;;;8.68;5.55;;;24.40;62.40;;;;;;5074816;28;20025;-14
2022/10/23 10:00:26;;;;;;;5.15;3.90;;;24.40;61.90;;;;;;5075052;28;20044;-15
2022/10/23 10:02:57;;;;;;;7.50;5.05;;;24.60;62.10;;;;;;5074681;28;20471;-14
2022/10/23 10:05:29;;;;;;;7.95;4.25;;;24.70;61.70;;;;;;5074610;28;20070;-14
2022/10/23 10:08:20;;;;;;;10.18;5.25;;;24.60;62.40;;;;;;5074929;28;20016;-15
2022/10/23 10:11:01;;;;;;;8.00;4.50;;;24.40;60.00;;;;;;5074650;28;20020;-14
2022/10/23 10:13:33;;;;;;;4.70;3.60;;;24.40;62.10;;;;;;5074399;28;20507;-14
2022/10/23 10:16:11;;;;;;;10.67;3.70;;;24.40;61.70;;;;;;5074421;28;20032;-14
2022/10/23 10:18:49;;;;;;;5.60;3.20;;;24.60;62.10;;;;;;5074277;28;20499;-15
2022/10/23 10:21:35;;;;;;;5.40;3.30;;;24.80;60.60;;;;;;5074609;28;20029;-14
2022/10/23 10:24:14;;;;;;;6.28;3.38;;;24.80;58.50;;;;;;5074551;28;20025;-15
2022/10/23 10:26:59;;;;;;;12.82;3.42;;;24.90;59.80;;;;;;5074168;28;20021;-15
2022/10/23 10:29:43;;;;;;;9.68;4.20;;;25.10;59.20;;;;;;5074074;28;20115;-15
2022/10/23 10:32:34;;;;;;;6.03;3.30;;;25.20;59.10;;;;;;5073851;28;20518;-15
2022/10/23 10:35:11;;;;;;;3.65;3.00;;;25.20;58.50;;;;;;5073855;28;20494;-15
2022/10/23 10:38:08;;;;;;;6.70;3.53;;;25.30;59.70;;;;;;5074630;28;20059;-15
2022/10/23 10:40:40;;;;;;;6.93;3.40;;;25.40;57.60;;;;;;5074100;28;20037;-15
2022/10/23 10:43:18;;;;;;;5.85;3.67;;;25.50;58.10;;;;;;5073730;28;20047;-16
2022/10/23 10:45:55;;;;;;;6.32;3.47;;;25.70;58.00;;;;;;5073845;28;20540;-15
2022/10/23 10:48:45;;;;;;;6.13;3.28;;;25.60;56.40;;;;;;5073981;28;20012;-14
2022/10/23 10:51:28;;;;;;;6.80;3.22;;;25.90;54.90;;;;;;5073738;28;20112;-15
2022/10/23 10:54:04;;;;;;;4.20;3.20;;;26.00;56.30;;;;;;5074002;28;20063;-15
2022/10/23 10:56:33;;;;;;;6.32;3.20;;;26.30;55.80;;;;;;5073850;28;20494;-14
2022/10/23 10:59:04;;;;;;;6.45;3.10;;;26.50;55.80;;;;;;5073297;28;20492;-16
2022/10/23 11:01:49;;;;;;;4.53;2.72;;;26.90;55.10;;;;;;5074085;28;20026;-15
2022/10/23 11:04:44;;;;;;;6.30;3.00;;;27.00;53.40;;;;;;5073831;28;20028;-15
2022/10/23 11:07:14;;;;;;;5.70;2.70;;;27.10;54.00;;;;;;5073319;28;20051;-15
2022/10/23 11:09:42;;;;;;;4.88;2.70;;;27.30;54.40;;;;;;5073847;28;20035;-15
2022/10/23 11:12:17;;;;;;;5.80;3.00;;;27.50;53.90;;;;;;5072504;28;20024;-16
2022/10/23 11:14:44;;;;;;;3.65;2.65;;;27.70;52.60;;;;;;5073409;28;20074;-15
2022/10/23 11:17:20;;;;;;;5.03;2.72;;;27.80;52.60;;;;;;5073427;28;20024;-15
2022/10/23 11:20:02;;;;;;;4.80;3.30;;;27.90;52.00;;;;;;5073240;28;20369;-15
2022/10/23 11:22:42;;;;;;;3.17;2.65;;;28.00;51.00;;;;;;5072099;28;20446;-15
2022/10/23 11:25:43;;;;;;;4.68;3.20;;;28.20;51.70;;;;;;5073149;28;20078;-14
2022/10/23 11:28:18;;;;;;;5.75;3.70;;;28.20;51.50;;;;;;5073294;28;20023;-15
2022/10/23 11:31:18;;;;;;;7.25;3.53;;;28.30;51.50;;;;;;5073493;28;20056;-15
2022/10/23 11:34:11;;;;;;;5.63;2.85;;;28.10;51.30;;;;;;5073857;28;20048;-16
2022/10/23 11:36:47;;;;;;;4.13;3.05;;;27.70;52.30;;;;;;5073088;28;20024;-15
2022/10/23 11:39:18;;;;;;;3.90;3.05;;;27.60;52.50;;;;;;5073459;28;20036;-14
2022/10/23 11:41:59;;;;;;;4.85;3.20;;;27.30;53.40;;;;;;5073045;28;20051;-14
2022/10/23 11:44:32;;;;;;;5.90;3.40;;;27.20;53.90;;;;;;5072201;28;20040;-15
2022/10/23 11:47:03;;;;;;;6.30;3.17;;;27.20;53.50;;;;;;5072794;28;20468;-15
2022/10/23 11:49:29;;;;;;;6.10;3.08;;;27.20;53.10;;;;;;5073053;28;20372;-15
2022/10/23 11:52:05;;;;;;;4.47;3.15;;;27.30;53.50;;;;;;5072946;28;20521;-15
2022/10/23 11:54:31;;;;;;;4.82;3.03;;;27.40;53.20;;;;;;5073474;28;20028;-15
2022/10/23 11:57:06;;;;;;;6.85;3.10;;;27.60;53.30;;;;;;5073373;28;20138;-15
2022/10/23 11:59:34;;;;;;;6.60;3.60;;;27.90;52.60;;;;;;5073014;28;20037;-16
2022/10/23 12:02:31;;;;;;;7.10;3.55;;;28.10;52.60;;;;;;5073181;28;20028;-16
2022/10/23 12:05:03;;;;;;;7.28;4.15;;;28.40;51.30;;;;;;5072787;28;20017;-15
2022/10/23 12:07:55;;;;;;;9.35;4.45;;;28.40;50.30;;;;;;5072903;28;20029;-16
2022/10/23 12:10:33;;;;;;;7.07;3.40;;;28.40;50.10;;;;;;5072865;28;20082;-15
2022/10/23 12:13:03;;;;;;;6.15;3.40;;;28.40;51.30;;;;;;5072910;28;20020;-15
2022/10/23 12:15:31;;;;;;;7.60;4.07;;;28.50;51.60;;;;;;5072739;28;20020;-15
2022/10/23 12:18:16;;;;;;;6.70;3.53;;;28.50;50.30;;;;;;5073007;28;20067;-15
2022/10/23 12:20:59;;;;;;;8.88;4.10;;;28.50;51.40;;;;;;5072793;28;20047;-15
2022/10/23 12:23:55;;;;;;;5.75;3.50;;;28.30;50.60;;;;;;5072994;28;20040;-15
2022/10/23 12:26:47;;;;;;;9.98;4.35;;;28.30;51.00;;;;;;5073041;28;20024;-15
2022/10/23 12:29:35;;;;;;;5.93;3.78;;;28.40;51.00;;;;;;5072862;28;20046;-15
2022/10/23 12:32:26;;;;;;;9.00;4.22;;;28.40;49.20;;;;;;5072619;28;20017;-16
2022/10/23 12:35:16;;;;;;;7.45;3.97;;;28.50;50.40;;;;;;5072564;28;20107;-15
2022/10/23 12:38:00;;;;;;;7.68;4.35;;;28.60;50.80;;;;;;5072818;28;20021;-17
2022/10/23 12:40:28;;;;;;;7.53;3.97;;;28.60;51.00;;;;;;5072403;28;20064;-14
2022/10/23 12:42:58;;;;;;;7.93;3.47;;;28.40;51.20;;;;;;5072342;28;20413;-15
2022/10/23 12:45:39;;;;;;;8.13;4.05;;;28.20;51.60;;;;;;5072209;28;20131;-15
2022/10/23 12:48:05;;;;;;;9.27;4.22;;;28.20;51.60;;;;;;5072368;28;20024;-15
2022/10/23 12:50:33;;;;;;;6.80;3.47;;;28.20;50.90;;;;;;5071135;28;20020;-15
2022/10/23 12:53:02;;;;;;;6.57;3.60;;;28.10;51.50;;;;;;5070981;28;20052;-15
2022/10/23 12:55:46;;;;;;;7.32;3.80;;;28.10;51.90;;;;;;5073357;28;20012;-14
2022/10/23 12:58:28;;;;;;;7.07;3.80;;;28.00;50.70;;;;;;5076211;28;20117;-15
2022/10/23 13:01:01;;;;;;;8.07;4.22;;;27.90;51.90;;;;;;5076039;28;20032;-15
2022/10/23 13:03:29;;;;;;;7.80;4.53;;;27.90;52.20;;;;;;5076137;28;20026;-15
2022/10/23 13:05:57;;;;;;;8.30;4.10;;;27.90;52.10;;;;;;5075755;28;20484;-15
2022/10/23 13:08:31;;;;;;;6.50;4.20;;;28.10;52.20;;;;;;5076052;28;20032;-15
2022/10/23 13:10:57;;;;;;;8.13;3.85;;;28.20;52.00;;;;;;5074312;28;20025;-15